Hackberry Slope, NM

9:00 AM MST en Enero 20, 2017 (GMT -0700)
2.1 NNW Downtown Carlsbad, NM | | Change Station
Aviso en curso: Wind Advisory

Alt 3158 ft 32.43 °N, 104.25 °W | Updated 2 seconds ago

Despejado
Despejado
57.5 ° F
Sensación térmica 57.5 ° F
N
4.0
Viento Variable Viento desde SO
Gusts 14.0 mph

Hoy
Alta -- | Baja -- ° F
--% Posibilidad de precipitaciones
Ayer
Alta -- | Baja -- ° F
Precip. -- pul
Presión 29.65 pul
Visibilidad 10.0 Millas
Nubes Despejado
Punto de rocío 29 ° F
Humedad 34%
Precipitaciones 0.00 pul
Espesor de la nieve No disponible.
6:57 AM 5:19 PM
Cuarto menguante, 43% visible
METAR KCNM 201553Z AUTO 25012G21KT 10SM CLR 14/M03 A2974 RMK AO2 PK WND 24036/1515 SLP041 T01391028
Presión 29.65 pul
Visibilidad 10.0 Millas
Nubes Despejado
Punto de rocío 29 ° F
Humedad 34%
Precipitaciones 0.00 pul
Espesor de la nieve No disponible.
6:57 AM 5:19 PM
Cuarto menguante, 43% visible
METAR KCNM 201553Z AUTO 25012G21KT 10SM CLR 14/M03 A2974 RMK AO2 PK WND 24036/1515 SLP041 T01391028

Get Your Daily Forecast Email!

Thanks for signing up!

Be on the lookout for a verification email in your inbox.

You'll start receiving the daily forecast at 8 AM.

×

10-Day Weather Forecast

Almanac

Astronomía

Jan. 20, 2017 Salida Puesta
Hora real
Crepúsculo civil
Crepúsculo náutico
Crepúsculo astronómico
Luna
Horas de luz
Horas de luz
Tomorrow will be .
, % of the Moon is Illuminated

Extremos de hoy

Máximos del estado Bajos del estado

Community

WunderPhotos

Upload Photos

1,962,540 ¡fotos cargadas!

WunderBlog® & News

Nearby

Calidad del aire

  Calidad del aire Índice AQ Contaminante
Not available.

Grosos de nieve

Estación Profundido Altura

Actividad de terremotos

Ciudad Distance Mag. Tiempo y dato
Magnitud mínima muestra es 2,5.

Temperaturas de aguas costeras

Lugar Temperatura

Stations

Estaciones meteorológicas cercanas

Ubicación de la estación Temp. Vientos helados Punto de rocío Humedad Viento Precip. Alt Actualizado Tipo
                   

Watches & Warnings

Wind Advisory
Issued: 2:42 AM MST Jan. 20, 2017 – National Weather Service

... Wind Advisory remains in effect from 10 am CST /9 am MST/ this
morning to 8 PM CST /7 PM MST/ this evening...

* timing... today through this evening.

* Winds... west 25 to 40 mph with gusts up to 55 mph.

* Impacts... motorists should exercise caution while driving in
the Wind Advisory area. Be alert to sudden gusts of wind which
may cause you to lose control of your vehicle.

Precautionary/preparedness actions...

A Wind Advisory means that winds of 30 mph are expected. Winds
this strong can make driving difficult... especially for high
profile vehicles. Use extra caution.